City Of Cleveland — WDC2358 — position and weather

sailwx.info

Track history (hours):
 
Tides and Currents Weather Stations Pressure Air Temp Water Temp Dewpoint Dewpoint Depression Visibility Wind Speed Wind Dir Waves Ship Positions

City Of Cleveland

More information available from US FCC via Universal Licensing System and Coast Guard Vessel Documentation Center.

Last reported at 2014-Sep-11 12:19 UTC. Time now 2014-Sep-23 20:25 UTC.
Position N 30°11' W 091°08'.
Warning: this ship's position is 12 days out of date.

Length 42 m; draft 12.5 m.

Type: Towing. MMSI: 366991810.

Date/timePositionNaut miles runAvg speedWind from/ knotsBaromVisibWave heightAir tempDewpointWater temp
2014-Sep-11 12:19N 30°11' W 091°08'0 0.4
2014-Sep-11 11:17N 30°12' W 091°07'3 3.6
2014-Sep-11 10:34N 30°13' W 091°05'9 3.0
2014-Sep-11 07:33N 30°07' W 090°57'2 1.1
2014-Sep-11 05:30N 30°06' W 090°55'3 3.4
2014-Sep-11 04:31N 30°04' W 090°52'4 4.2
2014-Sep-11 03:32N 29°60' W 090°50'3 3.0
2014-Sep-11 02:34N 30°01' W 090°47'3 2.1
2014-Sep-11 01:15N 30°01' W 090°44'0 0.0
2014-Sep-11 00:31N 30°01' W 090°43'0 0.0
2014-Sep-10 23:33N 30°01' W 090°44'0 0.0
2014-Sep-10 22:33N 30°01' W 090°44'7 2.1
2014-Sep-10 19:23N 30°02' W 090°36'3 3.8
2014-Sep-10 18:33N 30°03' W 090°33'1 0.9
2014-Sep-10 17:33N 30°03' W 090°32'0 0.0
2014-Sep-10 16:33N 30°03' W 090°32'0 0.1
2014-Sep-10 15:33N 30°03' W 090°31'0 0.1
2014-Sep-10 14:33N 30°03' W 090°31'3 1.5
2014-Sep-10 12:33N 30°02' W 090°28'0 0.0
2014-Sep-10 11:33N 30°02' W 090°28'0 0.0
2014-Sep-10 10:33N 30°02' W 090°28'0 0.0
2014-Sep-10 09:33N 30°02' W 090°28'0 0.0
2014-Sep-10 08:33N 30°02' W 090°28'0 0.0
2014-Sep-10 07:33N 30°02' W 090°28'0 0.0
2014-Sep-10 06:33N 30°02' W 090°28'3 2.5
2014-Sep-10 05:33N 29°60' W 090°27'4 4.4
2014-Sep-10 04:33N 29°57' W 090°23'5 4.5
2014-Sep-10 03:31N 29°58' W 090°18'5 4.0
2014-Sep-10 02:23N 29°56' W 090°13'4 0.2
2014-Sep-09 06:29N 29°58' W 090°17'4 4.3
2014-Sep-09 05:27N 29°56' W 090°21'0 0.0
2014-Sep-09 04:34N 29°56' W 090°21'0 0.0
2014-Sep-09 03:33N 29°56' W 090°21'0 0.0
2014-Sep-09 02:32N 29°56' W 090°21'0 0.0
2014-Sep-09 01:32N 29°56' W 090°21'0 0.0
2014-Sep-09 00:33N 29°56' W 090°21'0 0.0
2014-Sep-08 23:33N 29°56' W 090°21'0 0.0
2014-Sep-08 22:33N 29°56' W 090°21'8 0.8
2014-Sep-08 11:17N 30°02' W 090°28'0 0.0
2014-Sep-08 10:33N 30°02' W 090°28'0 0.0
2014-Sep-08 09:33N 30°02' W 090°28'5 4.8
2014-Sep-08 08:33N 30°03' W 090°34'4 4.3
2014-Sep-08 07:33N 30°03' W 090°39'0 0.0
2014-Sep-08 06:33N 30°03' W 090°39'0 0.0
2014-Sep-08 05:33N 30°03' W 090°39'0 0.0
2014-Sep-08 04:33N 30°03' W 090°39'0 0.0
2014-Sep-08 03:34N 30°03' W 090°39'0 0.1
2014-Sep-08 02:33N 30°03' W 090°39'5 4.8
2014-Sep-08 01:33N 30°01' W 090°44'5 5.5
2014-Sep-08 00:33N 29°59' W 090°50'10 4.0
2014-Sep-07 22:04N 30°08' W 090°55'  
Track history (hours):
 
Tides and Currents Weather Stations Pressure Air Temp Water Temp Dewpoint Dewpoint Depression Visibility Wind Speed Wind Dir Waves Ship Positions

City Of Cleveland

More information available from US FCC via Universal Licensing System and Coast Guard Vessel Documentation Center.

Last reported at 2014-Sep-11 12:19 UTC. Time now 2014-Sep-23 20:25 UTC.
Position N 30°11' W 091°08'.
Warning: this ship's position is 12 days out of date.

Length 42 m; draft 12.5 m.

Type: Towing. MMSI: 366991810.

Date/timePositionNaut miles runAvg speedWind from/ knotsBaromVisibWave heightAir tempDewpointWater temp
2014-Sep-11 12:19N 30°11' W 091°08'0 0.4
2014-Sep-11 11:17N 30°12' W 091°07'3 3.6
2014-Sep-11 10:34N 30°13' W 091°05'9 3.0
2014-Sep-11 07:33N 30°07' W 090°57'2 1.1
2014-Sep-11 05:30N 30°06' W 090°55'3 3.4
2014-Sep-11 04:31N 30°04' W 090°52'4 4.2
2014-Sep-11 03:32N 29°60' W 090°50'3 3.0
2014-Sep-11 02:34N 30°01' W 090°47'3 2.1
2014-Sep-11 01:15N 30°01' W 090°44'0 0.0
2014-Sep-11 00:31N 30°01' W 090°43'0 0.0
2014-Sep-10 23:33N 30°01' W 090°44'0 0.0
2014-Sep-10 22:33N 30°01' W 090°44'7 2.1
2014-Sep-10 19:23N 30°02' W 090°36'3 3.8
2014-Sep-10 18:33N 30°03' W 090°33'1 0.9
2014-Sep-10 17:33N 30°03' W 090°32'0 0.0
2014-Sep-10 16:33N 30°03' W 090°32'0 0.1
2014-Sep-10 15:33N 30°03' W 090°31'0 0.1
2014-Sep-10 14:33N 30°03' W 090°31'3 1.5
2014-Sep-10 12:33N 30°02' W 090°28'0 0.0
2014-Sep-10 11:33N 30°02' W 090°28'0 0.0
2014-Sep-10 10:33N 30°02' W 090°28'0 0.0
2014-Sep-10 09:33N 30°02' W 090°28'0 0.0
2014-Sep-10 08:33N 30°02' W 090°28'0 0.0
2014-Sep-10 07:33N 30°02' W 090°28'0 0.0
2014-Sep-10 06:33N 30°02' W 090°28'3 2.5
2014-Sep-10 05:33N 29°60' W 090°27'4 4.4
2014-Sep-10 04:33N 29°57' W 090°23'5 4.5
2014-Sep-10 03:31N 29°58' W 090°18'5 4.0
2014-Sep-10 02:23N 29°56' W 090°13'4 0.2
2014-Sep-09 06:29N 29°58' W 090°17'4 4.3
2014-Sep-09 05:27N 29°56' W 090°21'0 0.0
2014-Sep-09 04:34N 29°56' W 090°21'0 0.0
2014-Sep-09 03:33N 29°56' W 090°21'0 0.0
2014-Sep-09 02:32N 29°56' W 090°21'0 0.0
2014-Sep-09 01:32N 29°56' W 090°21'0 0.0
2014-Sep-09 00:33N 29°56' W 090°21'0 0.0
2014-Sep-08 23:33N 29°56' W 090°21'0 0.0
2014-Sep-08 22:33N 29°56' W 090°21'8 0.8
2014-Sep-08 11:17N 30°02' W 090°28'0 0.0
2014-Sep-08 10:33N 30°02' W 090°28'0 0.0
2014-Sep-08 09:33N 30°02' W 090°28'5 4.8
2014-Sep-08 08:33N 30°03' W 090°34'4 4.3
2014-Sep-08 07:33N 30°03' W 090°39'0 0.0
2014-Sep-08 06:33N 30°03' W 090°39'0 0.0
2014-Sep-08 05:33N 30°03' W 090°39'0 0.0
2014-Sep-08 04:33N 30°03' W 090°39'0 0.0
2014-Sep-08 03:34N 30°03' W 090°39'0 0.1
2014-Sep-08 02:33N 30°03' W 090°39'5 4.8
2014-Sep-08 01:33N 30°01' W 090°44'5 5.5
2014-Sep-08 00:33N 29°59' W 090°50'10 4.0
2014-Sep-07 22:04N 30°08' W 090°55'  

Dump ship's entire track history